Skip Navigation LinksHome page > Weather > Current weather Skip Navigation Links

Current Weather

Sarh, Chad

For information only: do not use for flight planning or navigation.
Latest weather
Observation time Saturday, November 1, 2014 8:00 AM WAT
Local time Saturday, November 1, 2014 9:01 AM WAT
Flight conditions Visual Meteorological Conditions
Winds
Wind speed calm
Visibility 6.2 mi.
Sky condition
Ceiling unlimited
Sky clear
Temperature 77°F
Dewpoint 70°F
Altimeter 29.88 in.Hg
Derived measurements
Relative humidity 79%
Heat index 77°F
Density altitude 1900 ft.
Remarks
Ceiling and visibility OK.
METAR FTTA 010700Z 00000KT CAVOK 25/21 Q1012

Settings

Location code

InnerDrive.Weather 4.0.5399.0 Release CLR 4.0.30319.34014
Copyright ©2014 Inner Drive Technology. All rights reserved. Portions Copyright ©1986-2014 David Braverman.

Find weather

Site navigation


Skip Navigation Links

Place info

Page info

PayPal - The safer, easier way to pay online!

Return home.

Copyright ©2014 Inner Drive Technology. Purveyors of fine, hand-crafted computer software. Page printed 2014-11-01T08:01:56 UTC.